• Join FlightAware (Why Join?)
  • Login
  • US Flag 
05:26AM EDT


 

Airport Tracker/Info


-or-


 

Live Flight TrackerFlight Track Log ✈ CTL15 ✈ 23-Apr-2013 ✈ KMGY - KBKL

Flight Track Log - Related Links

Times and Time Zones

All times are in EDT time to prevent confusion due to time zone crossing. See the CTL15 flight status page for this flight to view local times or setup timezone preferences in your user account.

Time Position Orientation Groundspeed Altitude Reporting Facility
EDT Latitude Longitude Course Direction KTS MPH feet Rate Location/Type
07:44PM 39.7178 -84.0656 44° Northeast 157 181 4,400  Level Indianapolis Center
07:45PM 39.7408 -84.0361 44° Northeast 155 178 5,100 720 Climbing Indianapolis Center
07:46PM 39.7522 -84.0167 53° Northeast 150 173 5,400 480 Climbing Indianapolis Center
07:46PM 39.7697 -83.9883 51° Northeast 166 191 5,600 480 Climbing Indianapolis Center
07:47PM 39.7831 -83.9711 45° Northeast 159 183 5,900 480 Climbing Indianapolis Center
07:47PM 39.8044 -83.9439 44° Northeast 181 208 6,100 480 Climbing Indianapolis Center
07:48PM 39.8256 -83.9153 46° Northeast 174 200 6,400 540 Climbing Indianapolis Center
07:48PM 39.8372 -83.8992 47° Northeast 187 215 6,600 480 Climbing Indianapolis Center
07:49PM 39.8628 -83.8667 44° Northeast 182 209 6,900 360 Climbing Indianapolis Center
07:49PM 39.8836 -83.8397 45° Northeast 187 215 7,100 60 Climbing Indianapolis Center
07:50PM 39.9011 -83.8167 45° Northeast 188 216 7,000  Descending Indianapolis Center
07:50PM 39.9161 -83.7978 44° Northeast 206 237 7,100  Climbing Indianapolis Center
07:51PM 39.9533 -83.7481 46° Northeast 208 239 7,000 -60 Descending Indianapolis Center
07:52PM 39.9950 -83.6961 44° Northeast 207 238 7,000  Level Indianapolis Center
07:53PM 40.0267 -83.6550 45° Northeast 207 238 7,000  Level Indianapolis Center
07:54PM 40.0689 -83.6022 44° Northeast 207 238 7,000  Level Indianapolis Center
07:54PM 40.0806 -83.5869 45° Northeast 207 238 7,000 60 Level Indianapolis Center
07:55PM 40.1106 -83.5503 43° Northeast 206 237 7,100  Climbing Indianapolis Center
07:56PM 40.1522 -83.4975 44° Northeast 205 236 7,000  Descending Indianapolis Center
07:56PM 40.1703 -83.4750 44° Northeast 205 236 7,100  Climbing Indianapolis Center
07:57PM 40.1947 -83.4469 41° Northeast 205 236 7,000 -60 Descending Indianapolis Center
07:58PM 40.2486 -83.3781 44° Northeast 200 230 7,000  Level Indianapolis Center
07:59PM 40.2758 -83.3433 44° Northeast 199 229 7,100  Climbing Indianapolis Center
08:00PM 40.3225 -83.2806 46° Northeast 202 232 7,100 -60 Level Indianapolis Center
08:01PM 40.3631 -83.2289 44° Northeast 205 236 7,000  Descending Indianapolis Center
08:02PM 40.4047 -83.1761 44° Northeast 205 236 7,100  Climbing Indianapolis Center
08:03PM 40.4458 -83.1222 45° Northeast 206 237 7,000 -60 Descending Indianapolis Center
08:04PM 40.4867 -83.0686 45° Northeast 206 237 7,000  Level Indianapolis Center
08:05PM 40.5261 -83.0208 43° Northeast 208 239 7,000  Level Indianapolis Center
08:06PM 40.5736 -82.9583 45° Northeast 206 237 7,000  Level Indianapolis Center
08:07PM 40.6139 -82.9042 46° Northeast 205 236 7,100  Climbing Indianapolis Center
08:08PM 40.6544 -82.8497 46° Northeast 206 237 7,000  Descending Indianapolis Center
08:09PM 40.6953 -82.7961 45° Northeast 204 235 7,100  Climbing Indianapolis Center
08:10PM 40.7356 -82.7422 45° Northeast 205 236 7,000 -60 Descending Indianapolis Center
08:11PM 40.7761 -82.6878 45° Northeast 206 237 7,000 -300 Level Indianapolis Center
08:12PM 40.8161 -82.6297 48° Northeast 210 242 6,400 -540 Descending Indianapolis Center
08:14PM 40.8606 -82.5711 45° Northeast 221 254 5,900 -540 Descending Indianapolis Center